GAP2279 RPVM-RPVB
Flight info
| Callsign | GAP2279 |
|---|---|
| Flight time | 0h 27m |
| Altitude | 16000 |
| Route | PARAO1Q PARAO W6A KADSO KADSO3P |
| Aircraft | DH8D/M-SDE2E3FGRY/H |
Departure
| Time | 2026-04-24 06:19 |
|---|---|
| Airport | Mactan Cebu International Airport (RPVM) |
Arrival
| Time | 2026-04-24 06:46 |
|---|---|
| Airport | Bacolod-Silay International Airport (RPVB) |
| Time | Latitude | Longitude | Altitude | Speed | Heading |
|---|---|---|---|---|---|
| 2026-04-24 06:04 | 10.31760 | 123.98165 | 38 ft | 0 kts | 314° |
| 2026-04-24 06:08 | 10.31760 | 123.98164 | 38 ft | 0 kts | 314° |
| 2026-04-24 06:08 | 10.31749 | 123.98176 | 38 ft | 0 kts | 314° |
| 2026-04-24 06:09 | 10.31742 | 123.98184 | 38 ft | 2 kts | 300° |
| 2026-04-24 06:09 | 10.31738 | 123.98193 | 38 ft | 2 kts | 284° |
| 2026-04-24 06:09 | 10.31737 | 123.98208 | 38 ft | 2 kts | 262° |
| 2026-04-24 06:09 | 10.31745 | 123.98227 | 38 ft | 2 kts | 231° |
| 2026-04-24 06:10 | 10.31714 | 123.98196 | 38 ft | 7 kts | 225° |
| 2026-04-24 06:10 | 10.31688 | 123.98170 | 38 ft | 2 kts | 225° |
| 2026-04-24 06:11 | 10.31684 | 123.98166 | 38 ft | 0 kts | 225° |
| 2026-04-24 06:13 | 10.31683 | 123.98164 | 38 ft | 1 kts | 225° |
| 2026-04-24 06:13 | 10.31644 | 123.98128 | 38 ft | 7 kts | 218° |
| 2026-04-24 06:13 | 10.31610 | 123.98118 | 38 ft | 8 kts | 174° |
| 2026-04-24 06:14 | 10.31557 | 123.98155 | 38 ft | 11 kts | 134° |
| 2026-04-24 06:14 | 10.31503 | 123.98212 | 38 ft | 9 kts | 134° |
| 2026-04-24 06:14 | 10.31450 | 123.98227 | 38 ft | 8 kts | 210° |
| 2026-04-24 06:14 | 10.31396 | 123.98175 | 38 ft | 12 kts | 224° |
| 2026-04-24 06:15 | 10.31326 | 123.98106 | 38 ft | 15 kts | 225° |
| 2026-04-24 06:15 | 10.31243 | 123.98022 | 38 ft | 17 kts | 225° |
| 2026-04-24 06:15 | 10.31150 | 123.97928 | 38 ft | 19 kts | 225° |
| 2026-04-24 06:15 | 10.31050 | 123.97828 | 38 ft | 20 kts | 225° |
| 2026-04-24 06:16 | 10.30957 | 123.97733 | 38 ft | 17 kts | 225° |
| 2026-04-24 06:16 | 10.30848 | 123.97624 | 38 ft | 15 kts | 225° |
| 2026-04-24 06:16 | 10.30795 | 123.97570 | 38 ft | 16 kts | 224° |
| 2026-04-24 06:16 | 10.30686 | 123.97461 | 38 ft | 16 kts | 224° |
| 2026-04-24 06:17 | 10.30601 | 123.97376 | 38 ft | 17 kts | 226° |
| 2026-04-24 06:17 | 10.30544 | 123.97319 | 38 ft | 17 kts | 225° |
| 2026-04-24 06:17 | 10.30435 | 123.97211 | 38 ft | 15 kts | 225° |
| 2026-04-24 06:17 | 10.30394 | 123.97169 | 38 ft | 10 kts | 221° |
| 2026-04-24 06:18 | 10.30335 | 123.97173 | 38 ft | 9 kts | 134° |
| 2026-04-24 06:18 | 10.30302 | 123.97213 | 38 ft | 3 kts | 100° |
| 2026-04-24 06:18 | 10.30313 | 123.97229 | 38 ft | 2 kts | 43° |
| 2026-04-24 06:18 | 10.30421 | 123.97337 | 38 ft | 58 kts | 45° |
| 2026-04-24 06:19 | 10.30926 | 123.97843 | 38 ft | 137 kts | 44° |
| 2026-04-24 06:19 | 10.31655 | 123.98603 | 272 ft | 161 kts | 46° |
| 2026-04-24 06:19 | 10.32754 | 123.99721 | 1054 ft | 173 kts | 47° |
| 2026-04-24 06:19 | 10.33325 | 124.00299 | 1482 ft | 178 kts | 47° |
| 2026-04-24 06:20 | 10.34512 | 124.01495 | 2262 ft | 187 kts | 46° |
| 2026-04-24 06:20 | 10.35454 | 124.02413 | 2812 ft | 191 kts | 40° |
| 2026-04-24 06:20 | 10.36244 | 124.02818 | 3143 ft | 196 kts | 12° |
| 2026-04-24 06:20 | 10.37580 | 124.02525 | 3584 ft | 205 kts | 329° |
| 2026-04-24 06:21 | 10.38679 | 124.01604 | 4108 ft | 209 kts | 316° |
| 2026-04-24 06:21 | 10.39668 | 124.00531 | 4650 ft | 210 kts | 314° |
| 2026-04-24 06:21 | 10.40659 | 123.99417 | 5164 ft | 212 kts | 313° |
| 2026-04-24 06:21 | 10.41977 | 123.97926 | 5845 ft | 214 kts | 313° |
| 2026-04-24 06:22 | 10.42643 | 123.97169 | 6170 ft | 216 kts | 313° |
| 2026-04-24 06:22 | 10.43642 | 123.96034 | 6691 ft | 216 kts | 313° |
| 2026-04-24 06:22 | 10.44654 | 123.94883 | 7169 ft | 218 kts | 312° |
| 2026-04-24 06:22 | 10.45668 | 123.93729 | 7625 ft | 221 kts | 313° |
| 2026-04-24 06:23 | 10.46686 | 123.92568 | 8092 ft | 221 kts | 312° |
| 2026-04-24 06:23 | 10.48058 | 123.91003 | 8686 ft | 224 kts | 313° |
| 2026-04-24 06:23 | 10.48743 | 123.90221 | 9006 ft | 224 kts | 313° |
| 2026-04-24 06:23 | 10.49800 | 123.89014 | 9433 ft | 226 kts | 313° |
| 2026-04-24 06:24 | 10.51197 | 123.87420 | 9991 ft | 228 kts | 313° |
| 2026-04-24 06:24 | 10.51896 | 123.86622 | 10276 ft | 229 kts | 313° |
| 2026-04-24 06:24 | 10.52956 | 123.85412 | 10699 ft | 229 kts | 313° |
| 2026-04-24 06:24 | 10.54022 | 123.84193 | 11105 ft | 230 kts | 312° |
| 2026-04-24 06:25 | 10.55092 | 123.82972 | 11514 ft | 233 kts | 312° |
| 2026-04-24 06:25 | 10.56519 | 123.81345 | 12238 ft | 233 kts | 312° |
| 2026-04-24 06:25 | 10.57237 | 123.80525 | 12574 ft | 235 kts | 312° |
| 2026-04-24 06:25 | 10.58327 | 123.79282 | 13151 ft | 236 kts | 312° |
| 2026-04-24 06:26 | 10.59424 | 123.78031 | 13723 ft | 239 kts | 312° |
| 2026-04-24 06:26 | 10.60532 | 123.76767 | 14282 ft | 241 kts | 312° |
| 2026-04-24 06:26 | 10.61640 | 123.75501 | 14836 ft | 243 kts | 311° |
| 2026-04-24 06:26 | 10.62771 | 123.74210 | 15383 ft | 246 kts | 312° |
| 2026-04-24 06:27 | 10.63925 | 123.72891 | 15761 ft | 258 kts | 312° |
| 2026-04-24 06:27 | 10.65177 | 123.71456 | 15905 ft | 280 kts | 311° |
| 2026-04-24 06:27 | 10.66522 | 123.69912 | 15952 ft | 303 kts | 311° |
| 2026-04-24 06:27 | 10.67973 | 123.68245 | 15967 ft | 324 kts | 311° |
| 2026-04-24 06:28 | 10.69529 | 123.66457 | 15967 ft | 348 kts | 311° |
| 2026-04-24 06:28 | 10.71724 | 123.63936 | 15958 ft | 363 kts | 311° |
| 2026-04-24 06:28 | 10.72833 | 123.62662 | 15953 ft | 363 kts | 311° |
| 2026-04-24 06:28 | 10.75060 | 123.60104 | 15946 ft | 361 kts | 311° |
| 2026-04-24 06:29 | 10.76734 | 123.58184 | 15952 ft | 361 kts | 311° |
| 2026-04-24 06:29 | 10.77832 | 123.56926 | 15953 ft | 362 kts | 311° |
| 2026-04-24 06:29 | 10.79522 | 123.54987 | 15949 ft | 362 kts | 311° |
| 2026-04-24 06:29 | 10.81740 | 123.52446 | 15945 ft | 362 kts | 311° |
| 2026-04-24 06:30 | 10.82871 | 123.51149 | 15945 ft | 362 kts | 311° |
| 2026-04-24 06:30 | 10.85083 | 123.48613 | 15934 ft | 363 kts | 312° |
| 2026-04-24 06:30 | 10.86203 | 123.47330 | 15933 ft | 363 kts | 312° |
| 2026-04-24 06:30 | 10.88450 | 123.44755 | 15935 ft | 363 kts | 312° |
| 2026-04-24 06:31 | 10.89575 | 123.43465 | 15942 ft | 363 kts | 311° |
| 2026-04-24 06:31 | 10.91237 | 123.41560 | 15939 ft | 363 kts | 311° |
| 2026-04-24 06:31 | 10.93590 | 123.39101 | 15939 ft | 362 kts | 316° |
| 2026-04-24 06:31 | 10.94821 | 123.37920 | 15939 ft | 362 kts | 317° |
| 2026-04-24 06:32 | 10.97273 | 123.35574 | 15930 ft | 362 kts | 317° |
| 2026-04-24 06:32 | 10.99100 | 123.33807 | 15926 ft | 363 kts | 315° |
| 2026-04-24 06:32 | 11.00152 | 123.32459 | 15903 ft | 364 kts | 301° |
| 2026-04-24 06:32 | 11.00876 | 123.30026 | 15928 ft | 364 kts | 274° |
| 2026-04-24 06:33 | 11.00458 | 123.26626 | 15931 ft | 361 kts | 258° |
| 2026-04-24 06:33 | 10.99952 | 123.24147 | 15930 ft | 361 kts | 257° |
| 2026-04-24 06:33 | 10.99602 | 123.22483 | 15928 ft | 362 kts | 257° |
| 2026-04-24 06:33 | 10.99062 | 123.19949 | 15725 ft | 369 kts | 257° |
| 2026-04-24 06:34 | 10.98339 | 123.16610 | 15192 ft | 363 kts | 257° |
| 2026-04-24 06:34 | 10.97789 | 123.14092 | 14747 ft | 360 kts | 257° |
| 2026-04-24 06:34 | 10.97430 | 123.12451 | 14448 ft | 357 kts | 257° |
| 2026-04-24 06:34 | 10.96895 | 123.10001 | 13993 ft | 353 kts | 257° |
| 2026-04-24 06:35 | 10.96186 | 123.06768 | 13413 ft | 348 kts | 257° |
| 2026-04-24 06:35 | 10.95839 | 123.05196 | 13145 ft | 345 kts | 257° |
| 2026-04-24 06:35 | 10.95144 | 123.02026 | 12583 ft | 343 kts | 257° |
| 2026-04-24 06:35 | 10.94628 | 122.99691 | 12136 ft | 342 kts | 256° |
| 2026-04-24 06:36 | 10.94150 | 122.98134 | 11688 ft | 344 kts | 245° |
| 2026-04-24 06:36 | 10.92684 | 122.96304 | 11324 ft | 329 kts | 217° |
| 2026-04-24 06:36 | 10.90798 | 122.95124 | 10965 ft | 312 kts | 208° |
| 2026-04-24 06:36 | 10.88325 | 122.93734 | 10441 ft | 296 kts | 207° |
| 2026-04-24 06:37 | 10.87127 | 122.93070 | 10183 ft | 288 kts | 207° |
| 2026-04-24 06:37 | 10.84795 | 122.91781 | 9702 ft | 285 kts | 207° |
| 2026-04-24 06:37 | 10.83630 | 122.91140 | 9480 ft | 284 kts | 206° |
| 2026-04-24 06:37 | 10.81888 | 122.90184 | 9122 ft | 284 kts | 206° |
| 2026-04-24 06:38 | 10.80132 | 122.89222 | 8760 ft | 283 kts | 206° |
| 2026-04-24 06:38 | 10.78403 | 122.88277 | 8404 ft | 277 kts | 206° |
| 2026-04-24 06:38 | 10.76745 | 122.87373 | 8063 ft | 266 kts | 206° |
| 2026-04-24 06:38 | 10.75146 | 122.86499 | 7740 ft | 261 kts | 206° |
| 2026-04-24 06:39 | 10.73522 | 122.85610 | 7404 ft | 262 kts | 206° |
| 2026-04-24 06:39 | 10.71383 | 122.84443 | 6967 ft | 264 kts | 205° |
| 2026-04-24 06:39 | 10.70307 | 122.83856 | 6748 ft | 262 kts | 206° |
| 2026-04-24 06:39 | 10.68676 | 122.82989 | 6364 ft | 264 kts | 202° |
| 2026-04-24 06:40 | 10.66315 | 122.82845 | 5681 ft | 256 kts | 155° |
| 2026-04-24 06:40 | 10.65345 | 122.83501 | 5479 ft | 250 kts | 132° |
| 2026-04-24 06:40 | 10.64336 | 122.84916 | 5187 ft | 249 kts | 120° |
| 2026-04-24 06:40 | 10.63149 | 122.86883 | 4758 ft | 236 kts | 119° |
| 2026-04-24 06:41 | 10.62599 | 122.87817 | 4558 ft | 229 kts | 118° |
| 2026-04-24 06:41 | 10.61805 | 122.89172 | 4281 ft | 217 kts | 118° |
| 2026-04-24 06:41 | 10.61174 | 122.90532 | 3823 ft | 213 kts | 98° |
| 2026-04-24 06:41 | 10.61815 | 122.92270 | 3423 ft | 203 kts | 42° |
| 2026-04-24 06:42 | 10.62565 | 122.92828 | 3257 ft | 201 kts | 34° |
| 2026-04-24 06:42 | 10.63742 | 122.93583 | 2998 ft | 199 kts | 33° |
| 2026-04-24 06:42 | 10.65324 | 122.94557 | 2639 ft | 195 kts | 32° |
| 2026-04-24 06:42 | 10.66486 | 122.95261 | 2387 ft | 195 kts | 32° |
| 2026-04-24 06:43 | 10.67256 | 122.95722 | 2220 ft | 190 kts | 32° |
| 2026-04-24 06:43 | 10.68333 | 122.96355 | 1983 ft | 166 kts | 32° |
| 2026-04-24 06:43 | 10.69263 | 122.96911 | 1761 ft | 143 kts | 32° |
| 2026-04-24 06:43 | 10.70053 | 122.97384 | 1617 ft | 123 kts | 33° |
| 2026-04-24 06:44 | 10.71026 | 122.97982 | 1401 ft | 122 kts | 34° |
| 2026-04-24 06:44 | 10.71514 | 122.98281 | 1299 ft | 122 kts | 34° |
| 2026-04-24 06:44 | 10.72255 | 122.98731 | 1137 ft | 125 kts | 33° |
| 2026-04-24 06:44 | 10.72998 | 122.99172 | 969 ft | 124 kts | 32° |
| 2026-04-24 06:45 | 10.73751 | 122.99610 | 808 ft | 123 kts | 31° |
| 2026-04-24 06:45 | 10.74493 | 123.00044 | 682 ft | 121 kts | 32° |
| 2026-04-24 06:45 | 10.75225 | 123.00478 | 493 ft | 122 kts | 33° |
| 2026-04-24 06:45 | 10.76196 | 123.01052 | 274 ft | 120 kts | 32° |
| 2026-04-24 06:46 | 10.76923 | 123.01480 | 133 ft | 120 kts | 32° |
| 2026-04-24 06:46 | 10.77592 | 123.01870 | 99 ft | 89 kts | 30° |
| 2026-04-24 06:46 | 10.77968 | 123.02089 | 100 ft | 35 kts | 30° |
| 2026-04-24 06:46 | 10.78092 | 123.02162 | 100 ft | 27 kts | 30° |
| 2026-04-24 06:47 | 10.78234 | 123.02245 | 100 ft | 21 kts | 31° |
| 2026-04-24 06:47 | 10.78375 | 123.02315 | 100 ft | 13 kts | 6° |
| 2026-04-24 06:47 | 10.78431 | 123.02344 | 99 ft | 5 kts | 91° |
| 2026-04-24 06:47 | 10.78414 | 123.02354 | 100 ft | 6 kts | 193° |
| 2026-04-24 06:48 | 10.78314 | 123.02293 | 100 ft | 17 kts | 211° |
| 2026-04-24 06:48 | 10.78189 | 123.02218 | 100 ft | 23 kts | 210° |
| 2026-04-24 06:48 | 10.78091 | 123.02162 | 100 ft | 24 kts | 210° |
| 2026-04-24 06:48 | 10.77941 | 123.02074 | 100 ft | 25 kts | 210° |
| 2026-04-24 06:49 | 10.77735 | 123.01953 | 100 ft | 21 kts | 210° |
| 2026-04-24 06:49 | 10.77684 | 123.01915 | 99 ft | 11 kts | 242° |
| 2026-04-24 06:49 | 10.77705 | 123.01823 | 96 ft | 14 kts | 300° |
| 2026-04-24 06:49 | 10.77743 | 123.01709 | 96 ft | 11 kts | 244° |
| 2026-04-24 06:50 | 10.77678 | 123.01662 | 95 ft | 11 kts | 210° |
| 2026-04-24 06:50 | 10.77629 | 123.01633 | 95 ft | 11 kts | 209° |
| 2026-04-24 06:50 | 10.77606 | 123.01603 | 95 ft | 5 kts | 286° |
| 2026-04-24 06:50 | 10.77626 | 123.01564 | 95 ft | 6 kts | 300° |
| 2026-04-24 06:51 | 10.77634 | 123.01550 | 95 ft | 0 kts | 300° |
| 2026-04-24 06:51 | 10.77635 | 123.01549 | 94 ft | 0 kts | 300° |